Barter Island LRRS Airport Barter Island Lrrs US
ICAO: PABA
IATA:
Category: Medium
Scheduled Services:

Elevation: 2 ft
TransAlt. 18000 ft.

Airport Communications:
AWOS 3:30.8
ANCHORAGE CNTR:120.6
CTAF:126.2
DEADHORSE RDO:122
RDO:126.2

PABA Zoom In..

Runways:

(A) RW 07 length 4818 ft width 100 ft
---- / hdg 66

(B) RW 25 length 4818 ft width 100 ft
---- / hdg 246

Location; PABA
Day. 23 / Time. 21.57 Zulu
* Altimeter: 29.86
* Temperature: -01° c. -30.2°f.
* Wind from: 080° Speed 25 kn.
Dewpoint: -02° c.
Visibility: 10 Statute Miles.
Clouds: Overcast 600 ft.

PABA 232157Z 08025KT 10SM OVC006 M01/M02 A2986 RMK AO2 PK WND 08029/2154 FZRANO


Wind From 080°
Speed 25 kn.

 
 
jpsmedia.com for Web Design SOUNDCLOUD worldairports.se 2018   terms of use